Airfield :
LOGIN :

Register | Disclaimer

   EN    FR    IT 

 










Legend :    VFR   Marginal VFR   IFR   Intensive IFR   Very Intensive IFR
Visi :
Ceiling :
>= 8 km
>= 3000ft
5 to 8 km
1000 to 3000 ft
1500m to 5 km
500 to 1000 ft
800 to 1500m
200 to 500 ft
< 800m
< 200 ft
Symbols :   Thunderstorms  Fog  Heavy snow  Heavy precipitations  Wind > 20 kt
SIGMETs :     Misc.  Thunderstorms  Icing  Turbulence  Mountain Waves  Volcanic Ashes







- Airport Elevation : 499 ft
- IATA code : TLS
- Download approach charts


LFBO - Toulouse / Blagnac

CURRENT METAR :
  • 201500Z AUTO 34008KT 290V020 CAVOK 26/04 Q1024 NOSIG

EXPIRED METARs :
  • 201430Z AUTO 33009KT 300V030 CAVOK 26/03 Q1024 NOSIG
  • 201400Z AUTO 35009KT 270V040 CAVOK 26/03 Q1024 NOSIG
  • 201330Z AUTO 35008KT CAVOK 25/03 Q1024 NOSIG
  • 201300Z AUTO 35007KT 280V050 CAVOK 25/03 Q1024 NOSIG
  • 201230Z AUTO 35007KT 300V040 CAVOK 25/04 Q1025 NOSIG

TAF TAF LFBO
Valid from the 20 at 12:00 until the 21 at 18:00 UTC


201100Z 2012/2118 32007KT CAVOK
FM211000 06005KT CAVOK
ATIS : +33 5 62 74 66 36
No reported NOTAMs for that airfield.



MET'MAP, your aeronautical weather chart ! - Copyright ORBIFLY December 2007 - Disclaimer

ORBIFLY MET'MAP TEAM :

Programming & Development : Alexandra Zaïnal
Concept & Development : Baudouin d'Aumeries
Co-Development & Prog : Marc-Olivier Méhu
Technical & hardware support : Manuel Goepfert

Contact : metmap@orbifly.com




SOURCES & CREDITS :

   NOAA